createdAt,value
2018-02-20T00:01:47.725Z,79.83
2018-02-20T00:03:49.386Z,80.02
2018-02-20T00:05:50.896Z,79.83
2018-02-20T00:07:52.673Z,79.93
2018-02-20T00:09:54.149Z,80.11
2018-02-20T00:11:55.664Z,79.55
2018-02-20T00:13:57.148Z,79.83
2018-02-20T00:15:58.763Z,80.02
2018-02-20T00:18:00.520Z,79.93
2018-02-20T00:20:02.398Z,79.83
2018-02-20T00:22:03.898Z,79.07
2018-02-20T00:24:05.505Z,79.93
2018-02-20T00:26:07.247Z,79.26
2018-02-20T00:28:09.039Z,79.26
2018-02-20T00:30:10.778Z,79.26
2018-02-20T00:32:12.604Z,79.83
2018-02-20T00:34:14.334Z,79.93
2018-02-20T00:36:16.207Z,80.40
2018-02-20T00:38:17.876Z,79.74
2018-02-20T00:40:19.360Z,79.83
2018-02-20T00:42:20.881Z,79.93
2018-02-20T00:44:22.395Z,79.74
2018-02-20T00:46:23.852Z,79.36
2018-02-20T00:48:25.431Z,79.36
2018-02-20T00:50:27.047Z,79.32
2018-02-20T00:52:28.858Z,79.36
2018-02-20T00:54:30.690Z,79.36
2018-02-20T00:56:32.498Z,78.79
2018-02-20T00:58:34.317Z,79.36
2018-02-20T01:00:35.969Z,79.26
2018-02-20T01:03:18.405Z,79.60
2018-02-20T01:05:19.816Z,79.41
2018-02-20T01:07:21.212Z,79.22
2018-02-20T01:09:22.680Z,79.41
2018-02-20T01:11:24.142Z,78.94
2018-02-20T01:13:25.633Z,78.75
2018-02-20T01:15:27.030Z,78.75
2018-02-20T01:17:28.564Z,78.85
2018-02-20T01:19:30.282Z,78.46
2018-02-20T01:21:31.889Z,78.75
2018-02-20T01:24:14.630Z,78.94
2018-02-20T01:26:16.880Z,78.37
2018-02-20T01:28:18.145Z,77.80
2018-02-20T01:30:19.606Z,78.27
2018-02-20T01:32:21.025Z,77.99
2018-02-20T01:34:22.435Z,77.89
2018-02-20T01:36:23.952Z,78.37
2018-02-20T01:38:25.409Z,78.94
2018-02-20T01:40:26.879Z,77.99
2018-02-20T01:43:09.897Z,78.37
2018-02-20T01:45:12.019Z,78.18
2018-02-20T01:47:13.429Z,78.37
2018-02-20T01:49:14.954Z,78.46
2018-02-20T01:51:16.363Z,77.89
2018-02-20T01:53:17.768Z,78.46
2018-02-20T01:55:19.162Z,78.85
2018-02-20T01:57:20.708Z,79.41
2018-02-20T01:59:22.404Z,80.17
2018-02-20T02:01:24.219Z,79.88
2018-02-20T02:04:06.715Z,80.26
2018-02-20T02:06:08.187Z,80.55
2018-02-20T02:08:10.286Z,80.17
2018-02-20T02:10:11.530Z,79.98
2018-02-20T02:12:12.927Z,79.88
2018-02-20T02:14:14.411Z,79.13
2018-02-20T02:16:15.990Z,79.79
2018-02-20T02:18:17.842Z,79.41
2018-02-20T02:20:19.310Z,79.13
2018-02-20T02:22:20.798Z,79.98
2018-02-20T02:24:22.261Z,79.88
2018-02-20T02:26:23.792Z,79.60
2018-02-20T02:28:25.207Z,79.69
2018-02-20T02:30:26.705Z,79.03
2018-02-20T02:32:28.182Z,79.32
2018-02-20T02:34:29.642Z,79.50
2018-02-20T02:36:31.219Z,79.41
2018-02-20T02:38:33.065Z,79.69
2018-02-20T02:40:34.945Z,79.88
2018-02-20T02:42:36.560Z,79.13
2018-02-20T02:44:37.986Z,79.13
2018-02-20T02:46:39.478Z,80.17
2018-02-20T02:48:40.877Z,80.26
2018-02-20T02:50:42.355Z,79.22
2018-02-20T02:52:43.750Z,79.22
2018-02-20T02:54:45.175Z,79.41
2018-02-20T02:56:46.920Z,79.13
2018-02-20T02:58:48.317Z,78.94
2018-02-20T03:00:49.798Z,79.32
2018-02-20T03:02:51.301Z,79.03
2018-02-20T03:04:52.820Z,79.32
2018-02-20T03:06:54.245Z,79.50
2018-02-20T03:08:55.724Z,79.60
2018-02-20T03:10:57.238Z,79.22
2018-02-20T03:12:58.715Z,78.85
2018-02-20T03:15:00.249Z,77.99
2018-02-20T03:17:01.718Z,77.99
2018-02-20T03:19:03.238Z,78.65
2018-02-20T03:21:04.734Z,78.61
2018-02-20T03:23:06.190Z,78.71
2018-02-20T03:25:07.652Z,79.28
2018-02-20T03:27:09.131Z,78.71
2018-02-20T03:29:10.684Z,79.47
2018-02-20T03:31:12.234Z,78.61
2018-02-20T03:33:13.738Z,78.90
2018-02-20T03:35:15.234Z,78.61
2018-02-20T03:37:16.899Z,78.14
2018-02-20T03:39:18.514Z,78.52
2018-02-20T03:41:20.018Z,79.18
2018-02-20T03:43:21.641Z,79.94
2018-02-20T03:45:23.170Z,79.85
2018-02-20T03:47:24.643Z,79.75
2018-02-20T03:49:26.138Z,80.22
2018-02-20T03:51:27.594Z,80.04
2018-02-20T03:53:29.145Z,79.56
2018-02-20T03:55:30.756Z,79.47
2018-02-20T03:57:32.279Z,79.56
2018-02-20T03:59:33.776Z,79.18
2018-02-20T04:01:35.290Z,79.37
2018-02-20T04:03:36.802Z,78.99
2018-02-20T04:05:38.502Z,78.61
2018-02-20T04:07:40.445Z,78.99
2018-02-20T04:09:42.209Z,78.05
2018-02-20T04:11:43.691Z,78.05
2018-02-20T04:13:45.199Z,78.33
2018-02-20T04:15:46.673Z,78.23
2018-02-20T04:17:48.096Z,78.23
2018-02-20T04:19:49.506Z,78.33
2018-02-20T04:21:50.906Z,78.80
2018-02-20T04:24:33.532Z,79.66
2018-02-20T04:26:34.902Z,80.04
2018-02-20T04:28:36.371Z,79.85
2018-02-20T04:30:38.021Z,80.69
2018-02-20T04:32:40.219Z,81.26
2018-02-20T04:34:41.617Z,80.60
2018-02-20T04:36:43.022Z,79.66
2018-02-20T04:38:44.439Z,80.22
2018-02-20T04:40:45.971Z,80.41
2018-02-20T04:43:28.424Z,80.32
2018-02-20T04:45:29.826Z,80.04
2018-02-20T04:47:31.222Z,80.22
2018-02-20T04:49:32.632Z,79.66
2018-02-20T04:51:34.279Z,79.47
2018-02-20T04:53:36.014Z,78.71
2018-02-20T04:55:37.415Z,79.47
2018-02-20T04:57:38.842Z,79.28
2018-02-20T04:59:40.307Z,79.28
2018-02-20T05:01:41.901Z,79.18
2018-02-20T05:03:43.368Z,78.99
2018-02-20T05:05:44.828Z,79.47
2018-02-20T05:07:46.345Z,79.56
2018-02-20T05:09:47.837Z,79.66
2018-02-20T05:11:49.481Z,79.18
2018-02-20T05:13:50.919Z,79.56
2018-02-20T05:15:52.486Z,79.37
2018-02-20T05:17:53.981Z,79.75
2018-02-20T05:19:55.473Z,79.75
2018-02-20T05:21:57.140Z,79.94
2018-02-20T05:24:39.541Z,80.41
2018-02-20T05:26:41.114Z,80.13
2018-02-20T05:28:43.422Z,80.04
2018-02-20T05:30:44.840Z,79.66
2018-02-20T05:32:46.297Z,79.66
2018-02-20T05:34:47.768Z,79.66
2018-02-20T05:36:49.164Z,79.66
2018-02-20T05:38:50.581Z,79.47
2018-02-20T05:40:52.045Z,78.90
2018-02-20T05:43:34.039Z,78.71
2018-02-20T05:45:35.408Z,79.18
2018-02-20T05:47:36.817Z,79.28
2018-02-20T05:49:38.216Z,79.47
2018-02-20T05:51:39.624Z,79.56
2018-02-20T05:53:41.019Z,80.27
2018-02-20T05:55:42.527Z,81.22
2018-02-20T05:57:44.890Z,80.88
2018-02-20T05:59:46.290Z,81.36
2018-02-20T06:01:47.715Z,79.75
2018-02-20T06:04:30.658Z,79.85
2018-02-20T06:06:32.140Z,79.85
2018-02-20T06:08:33.642Z,79.05
2018-02-20T06:10:35.051Z,79.37
2018-02-20T06:12:36.578Z,80.37
2018-02-20T06:14:38.079Z,80.13
2018-02-20T06:16:39.639Z,80.79
2018-02-20T06:18:41.099Z,80.41
2018-02-20T06:20:42.671Z,80.04
2018-02-20T06:22:44.484Z,80.04
2018-02-20T06:24:46.124Z,79.18
2018-02-20T06:26:47.634Z,79.09
2018-02-20T06:28:49.260Z,79.18
2018-02-20T06:30:50.732Z,79.37
2018-02-20T06:32:52.372Z,79.14
2018-02-20T06:34:53.818Z,79.37
2018-02-20T06:36:55.358Z,79.66
2018-02-20T06:38:56.984Z,79.85
2018-02-20T06:40:58.582Z,78.99
2018-02-20T06:43:41.573Z,78.80
2018-02-20T06:45:42.948Z,80.13
2018-02-20T06:47:44.411Z,79.61
2018-02-20T06:49:45.811Z,79.71
2018-02-20T06:51:47.212Z,79.90
2018-02-20T06:53:48.630Z,79.61
2018-02-20T06:55:50.829Z,80.08
2018-02-20T06:57:52.234Z,79.80
2018-02-20T06:59:53.649Z,79.33
2018-02-20T07:01:55.239Z,79.33
2018-02-20T07:03:56.801Z,79.33
2018-02-20T07:05:58.401Z,79.85
2018-02-20T07:08:00.263Z,79.56
2018-02-20T07:10:01.709Z,79.66
2018-02-20T07:12:03.224Z,79.18
2018-02-20T07:14:04.695Z,79.47
2018-02-20T07:16:06.461Z,79.09
2018-02-20T07:18:08.108Z,79.37
2018-02-20T07:20:09.737Z,79.28
2018-02-20T07:22:52.306Z,79.47
2018-02-20T07:24:53.720Z,79.75
2018-02-20T07:26:55.248Z,80.22
2018-02-20T07:28:56.689Z,79.94
2018-02-20T07:30:58.610Z,80.32
2018-02-20T07:33:00.224Z,80.51
2018-02-20T07:35:01.831Z,80.41
2018-02-20T07:37:03.381Z,79.94
2018-02-20T07:39:05.279Z,79.66
2018-02-20T07:41:07.038Z,80.04
2018-02-20T07:43:08.488Z,79.66
2018-02-20T07:45:10.832Z,80.32
2018-02-20T07:47:12.889Z,80.41
2018-02-20T07:49:14.499Z,80.69
2018-02-20T07:51:16.029Z,80.69
2018-02-20T07:53:17.493Z,81.21
2018-02-20T07:55:19.001Z,80.79
2018-02-20T07:57:20.480Z,81.12
2018-02-20T07:59:21.988Z,81.49
2018-02-20T08:01:23.501Z,81.77
2018-02-20T08:04:06.536Z,81.77
2018-02-20T08:06:08.125Z,81.77
2018-02-20T08:08:09.529Z,81.77
2018-02-20T08:10:11.487Z,81.87
2018-02-20T08:12:12.806Z,81.59
2018-02-20T08:14:14.241Z,81.12
2018-02-20T08:16:15.774Z,81.21
2018-02-20T08:18:17.342Z,81.96
2018-02-20T08:20:18.870Z,81.77
2018-02-20T08:22:20.341Z,81.72
2018-02-20T08:24:21.881Z,81.63
2018-02-20T08:26:23.575Z,81.92
2018-02-20T08:28:25.240Z,81.86
2018-02-20T08:30:26.750Z,78.72
2018-02-20T08:32:28.262Z,72.28
2018-02-20T08:34:29.950Z,65.06
2018-02-20T08:36:31.617Z,57.16
2018-02-20T08:38:33.174Z,51.81
2018-02-20T08:40:34.706Z,48.33
2018-02-20T08:42:36.245Z,44.81
2018-02-20T08:44:37.752Z,42.76
2018-02-20T08:46:39.421Z,40.78
2018-02-20T08:48:41.075Z,38.34
2018-02-20T08:50:42.564Z,36.15
2018-02-20T08:52:44.073Z,34.65
2018-02-20T08:54:45.570Z,33.69
2018-02-20T08:56:47.198Z,34.06
2018-02-20T08:58:48.719Z,35.57
2018-02-20T09:00:50.239Z,37.07
2018-02-20T09:02:51.783Z,38.07
2018-02-20T09:04:53.299Z,41.56
2018-02-20T09:06:54.779Z,43.91
2018-02-20T09:08:56.272Z,47.20
2018-02-20T09:10:58.095Z,50.32
2018-02-20T09:12:59.565Z,53.13
2018-02-20T09:15:01.142Z,54.91
2018-02-20T09:17:02.906Z,57.65
2018-02-20T09:19:04.548Z,59.36
2018-02-20T09:21:06.167Z,61.42
2018-02-20T09:23:07.633Z,62.53
2018-02-20T09:25:09.259Z,62.72
2018-02-20T09:27:10.974Z,64.43
2018-02-20T09:29:12.816Z,65.00
2018-02-20T09:31:14.287Z,65.16
2018-02-20T09:33:15.925Z,66.58
2018-02-20T09:35:17.941Z,66.39
2018-02-20T09:37:19.509Z,67.72
2018-02-20T09:39:21.028Z,67.91
2018-02-20T09:41:22.590Z,68.73
2018-02-20T09:43:24.086Z,68.44
2018-02-20T09:45:25.588Z,68.07
2018-02-20T09:47:27.268Z,68.44
2018-02-20T09:49:28.781Z,68.16
2018-02-20T09:51:30.287Z,68.26
2018-02-20T09:53:31.863Z,68.35
2018-02-20T09:55:33.456Z,67.40
2018-02-20T09:57:34.992Z,68.16
2018-02-20T09:59:36.451Z,68.83
2018-02-20T10:01:37.920Z,67.69
2018-02-20T10:04:20.590Z,67.97
2018-02-20T10:06:22.002Z,67.31
2018-02-20T10:08:23.415Z,68.35
2018-02-20T10:10:24.903Z,68.54
2018-02-20T10:12:26.843Z,67.69
2018-02-20T10:14:28.175Z,67.34
2018-02-20T10:16:29.588Z,66.77
2018-02-20T10:18:31.064Z,66.87
2018-02-20T10:20:32.596Z,67.25
2018-02-20T10:22:34.043Z,67.63
2018-02-20T10:24:35.771Z,65.35
2018-02-20T10:26:37.267Z,65.82
2018-02-20T10:28:38.800Z,65.63
2018-02-20T10:30:40.543Z,65.38
2018-02-20T10:32:42.656Z,63.86
2018-02-20T10:34:44.720Z,63.20
2018-02-20T10:36:46.872Z,61.87
2018-02-20T10:38:48.724Z,61.58
2018-02-20T10:40:50.439Z,61.39
2018-02-20T10:43:34.174Z,63.10
2018-02-20T10:45:36.175Z,61.01
2018-02-20T10:47:37.700Z,61.68
2018-02-20T10:49:39.170Z,61.01
2018-02-20T10:51:40.594Z,60.72
2018-02-20T10:53:42.108Z,59.33
2018-02-20T10:55:43.829Z,60.09
2018-02-20T10:57:45.817Z,59.05
2018-02-20T10:59:47.638Z,60.28
2018-02-20T11:01:49.303Z,59.14
2018-02-20T11:04:32.374Z,58.47
2018-02-20T11:06:34.353Z,58.47
2018-02-20T11:08:36.184Z,58.85
2018-02-20T11:10:37.709Z,58.95
2018-02-20T11:12:39.199Z,60.85
2018-02-20T11:14:41.312Z,59.71
2018-02-20T11:16:44.320Z,58.76
2018-02-20T11:18:44.810Z,57.52
2018-02-20T11:20:46.694Z,57.52
2018-02-20T11:23:29.514Z,57.33
2018-02-20T11:25:31.484Z,59.05
2018-02-20T11:27:33.244Z,59.61
2018-02-20T11:29:35.219Z,58.09
2018-02-20T11:31:37.228Z,57.81
2018-02-20T11:33:39.574Z,58.57
2018-02-20T11:35:41.669Z,58.00
2018-02-20T11:37:43.818Z,58.76
2018-02-20T11:39:45.611Z,58.76
2018-02-20T11:41:48.066Z,58.09
2018-02-20T11:44:30.848Z,59.33
2018-02-20T11:46:33.001Z,59.14
2018-02-20T11:48:34.681Z,59.61
2018-02-20T11:50:36.138Z,59.52
2018-02-20T11:52:38.211Z,59.42
2018-02-20T11:54:40.179Z,58.47
2018-02-20T11:56:41.709Z,58.76
2018-02-20T11:58:43.694Z,58.76
2018-02-20T12:00:45.501Z,58.47
2018-02-20T12:03:28.018Z,59.61
2018-02-20T12:05:29.545Z,59.14
2018-02-20T12:07:31.297Z,60.09
2018-02-20T12:09:33.162Z,60.57
2018-02-20T12:11:34.841Z,59.05
2018-02-20T12:13:36.533Z,58.66
2018-02-20T12:15:38.257Z,59.14
2018-02-20T12:17:39.834Z,58.95
2018-02-20T12:19:41.490Z,58.37
2018-02-20T12:21:43.764Z,59.74
2018-02-20T12:24:27.501Z,58.95
2018-02-20T12:26:29.378Z,59.23
2018-02-20T12:28:31.398Z,59.07
2018-02-20T12:30:32.794Z,56.57
2018-02-20T12:32:34.253Z,56.76
2018-02-20T12:34:35.808Z,56.00
2018-02-20T12:36:37.307Z,56.67
2018-02-20T12:38:38.742Z,56.85
2018-02-20T12:40:40.317Z,56.38
2018-02-20T12:43:23.349Z,57.14
2018-02-20T12:45:25.556Z,56.95
2018-02-20T12:47:27.526Z,56.29
2018-02-20T12:49:29.176Z,55.81
2018-02-20T12:51:30.735Z,56.48
2018-02-20T12:53:32.531Z,56.29
2018-02-20T12:55:34.265Z,57.24
2018-02-20T12:57:35.767Z,56.85
2018-02-20T12:59:37.237Z,57.43
2018-02-20T13:01:38.726Z,57.14
2018-02-20T13:04:21.567Z,56.19
2018-02-20T13:06:23.561Z,55.43
2018-02-20T13:08:24.972Z,56.85
2018-02-20T13:10:27.288Z,57.04
2018-02-20T13:12:28.829Z,57.90
2018-02-20T13:14:31.965Z,58.47
2018-02-20T13:16:33.321Z,59.61
2018-02-20T13:18:35.047Z,60.75
2018-02-20T13:20:36.595Z,61.52
2018-02-20T13:23:19.119Z,61.10
2018-02-20T13:25:20.526Z,62.24
2018-02-20T13:27:23.136Z,62.34
2018-02-20T13:29:25.824Z,61.96
2018-02-20T13:31:27.957Z,62.43
2018-02-20T13:33:29.989Z,63.13
2018-02-20T13:35:31.740Z,62.37
2018-02-20T13:37:33.362Z,63.23
2018-02-20T13:39:34.878Z,62.85
2018-02-20T13:41:36.319Z,61.80
2018-02-20T13:43:37.828Z,62.27
2018-02-20T13:45:39.439Z,62.37
2018-02-20T13:47:41.220Z,62.27
2018-02-20T13:49:42.853Z,62.37
2018-02-20T13:51:44.677Z,62.85
2018-02-20T13:53:46.382Z,62.37
2018-02-20T13:55:48.070Z,63.01
2018-02-20T13:57:49.555Z,62.62
2018-02-20T13:59:51.286Z,63.10
2018-02-20T14:01:52.722Z,62.72
2018-02-20T14:03:54.942Z,62.72
2018-02-20T14:05:56.682Z,63.10
2018-02-20T14:07:58.531Z,62.05
2018-02-20T14:10:00.302Z,61.96
2018-02-20T14:12:01.764Z,61.77
2018-02-20T14:14:03.534Z,61.58
2018-02-20T14:16:05.316Z,62.24
2018-02-20T14:18:07.012Z,62.34
2018-02-20T14:20:08.718Z,62.34
2018-02-20T14:22:10.707Z,62.43
2018-02-20T14:24:12.349Z,62.31
2018-02-20T14:26:13.848Z,62.97
2018-02-20T14:28:15.390Z,62.02
2018-02-20T14:30:17.044Z,62.40
2018-02-20T14:32:18.724Z,62.31
2018-02-20T14:34:21.007Z,62.78
2018-02-20T14:36:23.423Z,62.97
2018-02-20T14:38:25.053Z,62.50
2018-02-20T14:40:26.697Z,62.72
2018-02-20T14:42:28.974Z,63.01
2018-02-20T14:45:12.615Z,62.53
2018-02-20T14:47:16.122Z,61.77
2018-02-20T14:49:17.988Z,61.29
2018-02-20T14:51:19.622Z,61.29
2018-02-20T14:53:21.358Z,61.20
2018-02-20T14:55:23.110Z,60.82
2018-02-20T14:57:24.790Z,60.06
2018-02-20T14:59:26.538Z,59.58
2018-02-20T15:01:28.004Z,58.44
2018-02-20T15:04:11.585Z,57.50
2018-02-20T15:06:15.198Z,57.68
2018-02-20T15:08:17.011Z,57.02
2018-02-20T15:10:18.538Z,55.97
2018-02-20T15:12:20.094Z,56.54
2018-02-20T15:14:21.626Z,55.50
2018-02-20T15:16:23.430Z,56.16
2018-02-20T15:18:25.029Z,56.35
2018-02-20T15:20:26.652Z,55.59
2018-02-20T15:22:28.184Z,55.30
2018-02-20T15:25:10.594Z,55.40
2018-02-20T15:27:12.027Z,56.35
2018-02-20T15:29:13.470Z,56.54
2018-02-20T15:31:15.685Z,56.63
2018-02-20T15:33:19.103Z,56.83
2018-02-20T15:35:20.750Z,57.40
2018-02-20T15:37:22.368Z,57.87
2018-02-20T15:39:23.880Z,58.06
2018-02-20T15:41:25.364Z,58.44
2018-02-20T15:44:08.545Z,59.20
2018-02-20T15:46:10.747Z,59.20
2018-02-20T15:48:12.162Z,59.39
2018-02-20T15:50:13.574Z,59.77
2018-02-20T15:52:15.053Z,59.68
2018-02-20T15:54:17.247Z,59.01
2018-02-20T15:56:18.694Z,59.01
2018-02-20T15:58:20.338Z,58.44
2018-02-20T16:00:22.150Z,58.44
2018-02-20T16:02:23.744Z,58.92
2018-02-20T16:05:05.663Z,58.92
2018-02-20T16:07:09.609Z,59.17
2018-02-20T16:09:11.454Z,59.65
2018-02-20T16:11:13.676Z,58.89
2018-02-20T16:13:16.350Z,59.84
2018-02-20T16:15:18.392Z,59.55
2018-02-20T16:17:20.119Z,59.08
2018-02-20T16:19:21.635Z,60.13
2018-02-20T16:21:23.288Z,59.93
2018-02-20T16:24:06.160Z,60.13
2018-02-20T16:26:07.542Z,60.22
2018-02-20T16:28:08.966Z,61.07
2018-02-20T16:30:10.396Z,61.93
2018-02-20T16:32:12.316Z,61.26
2018-02-20T16:34:14.616Z,61.93
2018-02-20T16:36:16.087Z,62.12
2018-02-20T16:38:17.696Z,62.12
2018-02-20T16:40:19.778Z,61.52
2018-02-20T16:42:21.630Z,61.23
2018-02-20T16:45:05.647Z,61.90
2018-02-20T16:47:07.546Z,62.27
2018-02-20T16:49:10.667Z,62.46
2018-02-20T16:51:12.458Z,62.37
2018-02-20T16:53:14.254Z,62.37
2018-02-20T16:55:16.146Z,62.18
2018-02-20T16:57:17.864Z,62.56
2018-02-20T16:59:19.586Z,62.37
2018-02-20T17:01:21.476Z,63.04
2018-02-20T17:04:03.193Z,62.56
2018-02-20T17:06:05.912Z,62.85
2018-02-20T17:08:07.379Z,63.04
2018-02-20T17:10:09.164Z,63.04
2018-02-20T17:12:10.622Z,62.66
2018-02-20T17:14:12.216Z,63.42
2018-02-20T17:16:14.049Z,63.32
2018-02-20T17:18:15.831Z,63.39
2018-02-20T17:20:17.354Z,63.95
2018-02-20T17:22:18.886Z,63.67
2018-02-20T17:24:20.599Z,64.33
2018-02-20T17:26:22.310Z,64.71
2018-02-20T17:28:23.760Z,65.09
2018-02-20T17:30:25.244Z,65.00
2018-02-20T17:32:27.213Z,65.09
2018-02-20T17:34:28.846Z,64.90
2018-02-20T17:36:30.552Z,65.37
2018-02-20T17:38:32.180Z,65.37
2018-02-20T17:40:34.043Z,65.37
2018-02-20T17:42:35.819Z,65.47
2018-02-20T17:45:18.384Z,66.04
2018-02-20T17:47:20.424Z,66.23
2018-02-20T17:49:21.870Z,66.29
2018-02-20T17:51:23.278Z,66.77
2018-02-20T17:53:25.303Z,66.58
2018-02-20T17:55:26.714Z,66.77
2018-02-20T17:57:28.128Z,66.29
2018-02-20T17:59:29.533Z,66.67
2018-02-20T18:01:30.952Z,66.58
2018-02-20T18:03:32.372Z,66.67
2018-02-20T18:05:34.546Z,67.14
2018-02-20T18:07:37.058Z,67.24
2018-02-20T18:09:38.558Z,66.86
2018-02-20T18:11:40.038Z,67.14
2018-02-20T18:13:41.541Z,67.52
2018-02-20T18:15:43.040Z,67.24
2018-02-20T18:17:44.473Z,67.62
2018-02-20T18:19:45.901Z,67.90
2018-02-20T18:21:47.370Z,67.52
2018-02-20T18:23:48.940Z,67.62
2018-02-20T18:25:50.496Z,67.71
2018-02-20T18:27:52.045Z,67.52
2018-02-20T18:29:53.536Z,68.38
2018-02-20T18:31:55.146Z,68.00
2018-02-20T18:33:56.707Z,68.38
2018-02-20T18:35:58.371Z,68.66
2018-02-20T18:37:59.879Z,68.38
2018-02-20T18:40:01.430Z,69.33
2018-02-20T18:42:02.915Z,69.48
2018-02-20T18:44:04.441Z,70.09
2018-02-20T18:46:06.060Z,69.61
2018-02-20T18:48:07.677Z,69.57
2018-02-20T18:50:09.170Z,69.71
2018-02-20T18:52:10.797Z,69.33
2018-02-20T18:54:12.339Z,69.04
2018-02-20T18:56:14.373Z,69.29
2018-02-20T18:58:16.782Z,69.29
2018-02-20T19:00:19.230Z,68.73
2018-02-20T19:02:20.823Z,68.91
2018-02-20T19:04:22.684Z,69.01
2018-02-20T19:06:24.748Z,69.10
2018-02-20T19:08:27.125Z,69.01
2018-02-20T19:10:28.832Z,69.29
2018-02-20T19:12:30.303Z,70.05
2018-02-20T19:14:31.815Z,69.48
2018-02-20T19:16:34.044Z,69.86
2018-02-20T19:18:36.454Z,70.05
2018-02-20T19:20:37.888Z,69.29
2018-02-20T19:22:40.821Z,69.86
2018-02-20T19:24:43.881Z,69.86
2018-02-20T19:26:47.247Z,70.43
2018-02-20T19:28:48.329Z,70.24
2018-02-20T19:30:49.775Z,69.96
2018-02-20T19:32:51.292Z,70.15
2018-02-20T19:34:55.249Z,70.15
2018-02-20T19:36:57.715Z,70.53
2018-02-20T19:39:00.354Z,69.96
2018-02-20T19:41:03.023Z,70.24
2018-02-20T19:43:07.825Z,70.53
2018-02-20T19:45:10.150Z,69.67
2018-02-20T19:47:14.089Z,70.05
2018-02-20T19:49:18.338Z,70.34
2018-02-20T19:51:22.830Z,70.72
2018-02-20T19:53:27.512Z,70.81
2018-02-20T19:55:33.813Z,70.72
2018-02-20T19:57:38.824Z,70.81
2018-02-20T19:59:45.247Z,71.00
2018-02-20T20:01:48.864Z,70.72
2018-02-20T20:03:51.645Z,71.57
2018-02-20T20:05:54.910Z,70.81
2018-02-20T20:07:59.001Z,70.72
2018-02-20T20:10:04.801Z,70.90
2018-02-20T20:12:10.497Z,70.97
2018-02-20T20:14:15.992Z,70.90
2018-02-20T20:16:18.484Z,70.87
2018-02-20T20:18:21.607Z,71.47
2018-02-20T20:20:36.863Z,71.19
2018-02-20T20:22:31.874Z,71.15
2018-02-20T20:24:34.248Z,71.57
2018-02-20T20:26:38.397Z,70.87
2018-02-20T20:28:42.832Z,71.28
2018-02-20T20:30:47.533Z,71.28
2018-02-20T20:32:49.858Z,71.06
2018-02-20T20:34:53.395Z,70.87
2018-02-20T20:36:56.526Z,70.68
2018-02-20T20:39:00.904Z,71.25
2018-02-20T20:41:05.774Z,71.06
2018-02-20T20:43:09.813Z,71.25
2018-02-20T20:45:12.941Z,71.15
2018-02-20T20:47:16.033Z,70.87
2018-02-20T20:49:20.849Z,71.06
2018-02-20T20:51:23.988Z,71.57
2018-02-20T20:53:30.269Z,71.25
2018-02-20T20:55:32.630Z,70.97
2018-02-20T20:57:34.870Z,71.09
2018-02-20T20:59:37.815Z,71.44
2018-02-20T21:01:40.945Z,71.25
2018-02-20T21:04:26.104Z,71.34
2018-02-20T21:06:28.660Z,71.81
2018-02-20T21:08:31.492Z,71.34
2018-02-20T21:10:33.741Z,71.44
2018-02-20T21:12:36.225Z,71.15
2018-02-20T21:14:38.682Z,71.62
2018-02-20T21:16:40.199Z,71.53
2018-02-20T21:18:41.661Z,71.81
2018-02-20T21:20:43.355Z,71.72
2018-02-20T21:22:45.098Z,71.72
2018-02-20T21:25:29.063Z,71.91
2018-02-20T21:27:31.486Z,71.81
2018-02-20T21:29:33.146Z,72.29
2018-02-20T21:31:35.366Z,72.29
2018-02-20T21:33:37.291Z,72.29
2018-02-20T21:35:38.928Z,71.91
2018-02-20T21:37:40.685Z,72.19
2018-02-20T21:39:42.531Z,72.19
2018-02-20T21:41:44.422Z,72.10
2018-02-20T21:43:46.343Z,71.91
2018-02-20T21:45:48.096Z,72.29
2018-02-20T21:47:49.780Z,72.67
2018-02-20T21:49:51.333Z,72.96
2018-02-20T21:51:52.989Z,72.86
2018-02-20T21:53:54.539Z,72.77
2018-02-20T21:55:56.094Z,72.38
2018-02-20T21:57:57.666Z,72.48
2018-02-20T21:59:59.420Z,73.05
2018-02-20T22:02:01.404Z,73.14
2018-02-20T22:04:45.303Z,73.14
2018-02-20T22:06:47.471Z,72.96
2018-02-20T22:08:48.861Z,73.24
2018-02-20T22:10:51.102Z,73.33
2018-02-20T22:12:53.597Z,73.80
2018-02-20T22:14:54.844Z,73.90
2018-02-20T22:16:56.604Z,74.28
2018-02-20T22:18:58.475Z,74.09
2018-02-20T22:21:00.173Z,73.43
2018-02-20T22:23:01.860Z,73.33
2018-02-20T22:25:43.284Z,73.24
2018-02-20T22:27:45.758Z,73.61
2018-02-20T22:29:47.746Z,73.43
2018-02-20T22:31:49.508Z,73.52
2018-02-20T22:33:50.955Z,73.33
2018-02-20T22:35:52.781Z,73.90
2018-02-20T22:37:54.721Z,73.61
2018-02-20T22:39:56.373Z,73.30
2018-02-20T22:41:58.058Z,73.52
2018-02-20T22:43:59.957Z,73.52
2018-02-20T22:46:01.724Z,73.90
2018-02-20T22:48:03.237Z,73.43
2018-02-20T22:50:05.018Z,73.52
2018-02-20T22:52:06.539Z,73.61
2018-02-20T22:54:08.335Z,73.52
2018-02-20T22:56:10.152Z,73.61
2018-02-20T22:58:12.037Z,73.24
2018-02-20T23:00:13.706Z,73.49
2018-02-20T23:02:15.433Z,73.77
2018-02-20T23:04:17.104Z,74.05
2018-02-20T23:06:18.632Z,73.68
2018-02-20T23:09:01.495Z,73.86
2018-02-20T23:11:03.719Z,73.49
2018-02-20T23:13:05.241Z,73.96
2018-02-20T23:15:06.715Z,73.77
2018-02-20T23:17:08.135Z,74.24
2018-02-20T23:19:09.601Z,73.86
2018-02-20T23:21:11.051Z,74.43
2018-02-20T23:23:14.166Z,74.81
2018-02-20T23:25:57.112Z,74.33
2018-02-20T23:27:58.702Z,74.52
2018-02-20T23:30:00.104Z,74.81
2018-02-20T23:32:01.673Z,74.90
2018-02-20T23:34:04.137Z,74.71
2018-02-20T23:36:06.172Z,74.33
2018-02-20T23:38:07.822Z,74.33
2018-02-20T23:40:09.670Z,74.71
2018-02-20T23:42:11.216Z,75.09
2018-02-20T23:44:54.875Z,74.52
2018-02-20T23:46:57.151Z,74.71
2018-02-20T23:48:59.562Z,75.00
2018-02-20T23:51:01.001Z,74.33
2018-02-20T23:53:02.834Z,74.24
2018-02-20T23:55:04.451Z,74.52
2018-02-20T23:57:06.175Z,74.81
2018-02-20T23:59:08.037Z,74.24
